createdAt,value
2023-07-24T00:01:06.999Z,82.17
2023-07-24T00:03:33.493Z,81.74
2023-07-24T00:06:02.772Z,81.56
2023-07-24T00:08:29.373Z,81.60
2023-07-24T00:10:55.855Z,81.34
2023-07-24T00:13:22.246Z,81.21
2023-07-24T00:15:48.970Z,81.63
2023-07-24T00:18:15.460Z,81.55
2023-07-24T00:20:41.922Z,81.42
2023-07-24T00:23:08.365Z,81.35
2023-07-24T00:25:34.773Z,81.21
2023-07-24T00:28:01.693Z,81.36
2023-07-24T00:30:28.179Z,81.19
2023-07-24T00:32:55.210Z,81.04
2023-07-24T00:35:21.661Z,80.48
2023-07-24T00:37:48.139Z,80.28
2023-07-24T00:40:14.639Z,80.24
2023-07-24T00:42:41.110Z,80.46
2023-07-24T00:45:09.614Z,80.67
2023-07-24T00:47:36.137Z,80.46
2023-07-24T00:50:02.995Z,80.58
2023-07-24T00:52:29.468Z,81.11
2023-07-24T00:54:55.966Z,80.84
2023-07-24T00:57:22.811Z,81.23
2023-07-24T00:59:49.429Z,81.29
2023-07-24T01:02:15.922Z,81.40
2023-07-24T01:04:42.420Z,81.22
2023-07-24T01:07:09.855Z,81.30
2023-07-24T01:09:36.332Z,81.45
2023-07-24T01:12:13.686Z,81.80
2023-07-24T01:14:47.155Z,81.88
2023-07-24T01:17:18.291Z,81.37
2023-07-24T01:19:59.904Z,81.54
2023-07-24T01:22:33.827Z,81.68
2023-07-24T01:25:21.794Z,81.77
2023-07-24T01:27:48.185Z,81.51
2023-07-24T01:30:18.197Z,81.66
2023-07-24T01:32:45.160Z,82.03
2023-07-24T01:35:12.557Z,81.68
2023-07-24T01:37:41.398Z,81.66
2023-07-24T01:40:09.421Z,81.88
2023-07-24T01:42:37.027Z,82.14
2023-07-24T01:45:05.042Z,82.00
2023-07-24T01:47:31.600Z,82.10
2023-07-24T01:49:58.192Z,82.36
2023-07-24T01:52:24.646Z,82.05
2023-07-24T01:54:51.254Z,82.25
2023-07-24T01:57:17.733Z,82.49
2023-07-24T01:59:45.870Z,82.80
2023-07-24T02:02:12.398Z,82.83
2023-07-24T02:04:38.816Z,82.48
2023-07-24T02:07:05.642Z,83.04
2023-07-24T02:09:32.400Z,83.19
2023-07-24T02:11:58.855Z,82.94
2023-07-24T02:14:25.539Z,83.26
2023-07-24T02:16:51.982Z,83.49
2023-07-24T02:19:18.446Z,83.23
2023-07-24T02:21:44.973Z,83.77
2023-07-24T02:24:11.409Z,83.73
2023-07-24T02:26:37.861Z,83.69
2023-07-24T02:29:04.362Z,83.51
2023-07-24T02:31:30.878Z,83.71
2023-07-24T02:33:57.360Z,84.30
2023-07-24T02:36:24.059Z,84.12
2023-07-24T02:38:50.558Z,83.89
2023-07-24T02:41:17.160Z,84.16
2023-07-24T02:43:43.604Z,83.96
2023-07-24T02:46:10.122Z,84.12
2023-07-24T02:48:36.688Z,84.26
2023-07-24T02:51:03.229Z,84.09
2023-07-24T02:53:30.010Z,84.14
2023-07-24T02:55:56.530Z,84.10
2023-07-24T02:58:22.945Z,84.27
2023-07-24T03:00:49.422Z,83.95
2023-07-24T03:03:15.961Z,84.12
2023-07-24T03:05:42.425Z,84.20
2023-07-24T03:08:08.813Z,84.66
2023-07-24T03:10:35.313Z,84.63
2023-07-24T03:13:01.838Z,85.21
2023-07-24T03:15:28.500Z,85.00
2023-07-24T03:17:55.156Z,85.57
2023-07-24T03:20:22.060Z,85.52
2023-07-24T03:22:48.740Z,85.92
2023-07-24T03:25:15.189Z,85.90
2023-07-24T03:27:41.878Z,85.59
2023-07-24T03:30:08.602Z,85.95
2023-07-24T03:32:37.165Z,85.84
2023-07-24T03:35:03.859Z,85.70
2023-07-24T03:37:30.325Z,86.22
2023-07-24T03:39:56.701Z,86.27
2023-07-24T03:42:31.797Z,86.13
2023-07-24T03:44:58.642Z,86.34
2023-07-24T03:47:25.445Z,86.27
2023-07-24T03:49:52.361Z,86.40
2023-07-24T03:52:18.988Z,86.29
2023-07-24T03:54:45.659Z,86.15
2023-07-24T03:57:12.079Z,86.30
2023-07-24T03:59:38.536Z,86.16
2023-07-24T04:02:06.339Z,86.01
2023-07-24T04:04:34.320Z,86.17
2023-07-24T04:07:01.648Z,86.10
2023-07-24T04:09:28.401Z,86.49
2023-07-24T04:11:54.968Z,86.46
2023-07-24T04:14:21.545Z,86.33
2023-07-24T04:16:48.288Z,86.29
2023-07-24T04:19:14.882Z,86.46
2023-07-24T04:21:41.325Z,86.44
2023-07-24T04:24:07.883Z,86.91
2023-07-24T04:26:36.895Z,86.44
2023-07-24T04:29:04.475Z,86.97
2023-07-24T04:31:30.940Z,86.60
2023-07-24T04:33:57.439Z,86.49
2023-07-24T04:36:23.920Z,86.62
2023-07-24T04:38:50.417Z,87.02
2023-07-24T04:41:17.110Z,86.58
2023-07-24T04:43:43.689Z,87.05
2023-07-24T04:46:10.170Z,86.85
2023-07-24T04:48:36.599Z,86.30
2023-07-24T04:51:03.002Z,86.79
2023-07-24T04:53:29.449Z,86.69
2023-07-24T04:55:56.069Z,86.74
2023-07-24T04:58:22.621Z,86.40
2023-07-24T05:00:49.092Z,86.51
2023-07-24T05:03:17.754Z,86.23
2023-07-24T05:05:46.513Z,86.39
2023-07-24T05:08:14.507Z,85.96
2023-07-24T05:10:41.039Z,86.25
2023-07-24T05:13:07.597Z,86.25
2023-07-24T05:15:34.021Z,86.25
2023-07-24T05:18:01.009Z,86.15
2023-07-24T05:20:27.548Z,86.07
2023-07-24T05:22:53.966Z,85.73
2023-07-24T05:25:20.625Z,85.41
2023-07-24T05:27:47.117Z,85.77
2023-07-24T05:30:13.543Z,85.58
2023-07-24T05:32:40.186Z,85.39
2023-07-24T05:35:06.998Z,85.30
2023-07-24T05:37:33.476Z,85.61
2023-07-24T05:39:59.928Z,85.53
2023-07-24T05:42:26.401Z,85.25
2023-07-24T05:44:52.813Z,85.04
2023-07-24T05:47:19.247Z,85.07
2023-07-24T05:49:45.657Z,85.15
2023-07-24T05:52:12.126Z,84.87
2023-07-24T05:54:39.153Z,84.66
2023-07-24T05:57:05.858Z,85.08
2023-07-24T05:59:32.704Z,85.15
2023-07-24T06:01:59.175Z,84.21
2023-07-24T06:04:25.771Z,84.67
2023-07-24T06:06:52.318Z,84.35
2023-07-24T06:09:21.864Z,84.46
2023-07-24T06:11:48.719Z,84.68
2023-07-24T06:14:15.157Z,84.38
2023-07-24T06:16:41.690Z,84.50
2023-07-24T06:19:08.241Z,84.31
2023-07-24T06:21:34.680Z,84.05
2023-07-24T06:24:03.872Z,83.86
2023-07-24T06:26:30.995Z,84.10
2023-07-24T06:28:57.674Z,83.41
2023-07-24T06:31:24.130Z,83.78
2023-07-24T06:33:50.551Z,83.98
2023-07-24T06:36:17.032Z,83.60
2023-07-24T06:38:44.925Z,83.19
2023-07-24T06:41:11.462Z,83.11
2023-07-24T06:43:37.938Z,82.73
2023-07-24T06:46:04.399Z,82.04
2023-07-24T06:48:30.957Z,82.34
2023-07-24T06:50:57.409Z,82.06
2023-07-24T06:53:24.023Z,81.80
2023-07-24T06:55:50.596Z,81.48
2023-07-24T06:58:17.057Z,81.35
2023-07-24T07:00:43.579Z,81.04
2023-07-24T07:03:10.117Z,80.50
2023-07-24T07:05:36.634Z,80.59
2023-07-24T07:08:03.257Z,80.46
2023-07-24T07:10:31.882Z,80.06
2023-07-24T07:12:58.522Z,80.18
2023-07-24T07:15:25.009Z,79.60
2023-07-24T07:17:51.440Z,80.08
2023-07-24T07:20:17.971Z,80.16
2023-07-24T07:22:44.408Z,80.09
2023-07-24T07:25:10.920Z,79.99
2023-07-24T07:27:37.437Z,79.66
2023-07-24T07:30:05.385Z,79.66
2023-07-24T07:32:31.916Z,79.47
2023-07-24T07:34:58.373Z,78.94
2023-07-24T07:37:24.928Z,79.30
2023-07-24T07:39:51.372Z,79.30
2023-07-24T07:42:18.960Z,78.43
2023-07-24T07:44:47.304Z,78.69
2023-07-24T07:47:13.931Z,78.30
2023-07-24T07:49:41.259Z,78.04
2023-07-24T07:52:08.138Z,77.97
2023-07-24T07:54:34.590Z,78.46
2023-07-24T07:57:01.481Z,77.71
2023-07-24T07:59:27.984Z,77.28
2023-07-24T08:01:54.388Z,77.00
2023-07-24T08:04:20.859Z,77.61
2023-07-24T08:06:47.311Z,77.19
2023-07-24T08:09:13.719Z,77.60
2023-07-24T08:11:40.213Z,77.42
2023-07-24T08:14:06.709Z,77.43
2023-07-24T08:16:33.646Z,76.71
2023-07-24T08:19:02.778Z,77.38
2023-07-24T08:21:29.230Z,76.94
2023-07-24T08:23:55.866Z,76.96
2023-07-24T08:26:22.303Z,76.88
2023-07-24T08:28:48.702Z,76.58
2023-07-24T08:31:15.399Z,76.16
2023-07-24T08:33:41.912Z,76.35
2023-07-24T08:36:09.418Z,75.21
2023-07-24T08:38:36.682Z,75.97
2023-07-24T08:41:14.006Z,75.58
2023-07-24T08:43:43.111Z,75.33
2023-07-24T08:46:10.780Z,75.31
2023-07-24T08:48:39.867Z,75.34
2023-07-24T08:51:14.100Z,75.11
2023-07-24T08:53:42.487Z,75.83
2023-07-24T08:56:10.794Z,76.47
2023-07-24T08:58:37.828Z,76.42
2023-07-24T09:01:05.288Z,75.41
2023-07-24T09:03:33.534Z,74.97
2023-07-24T09:06:02.553Z,75.05
2023-07-24T09:08:31.478Z,73.76
2023-07-24T09:10:59.153Z,74.13
2023-07-24T09:13:25.893Z,74.71
2023-07-24T09:15:52.548Z,73.69
2023-07-24T09:18:19.455Z,74.62
2023-07-24T09:20:46.341Z,74.61
2023-07-24T09:23:17.162Z,75.00
2023-07-24T09:25:45.148Z,74.37
2023-07-24T09:28:16.460Z,73.03
2023-07-24T09:30:52.422Z,72.85
2023-07-24T09:33:18.972Z,73.13
2023-07-24T09:35:45.408Z,73.01
2023-07-24T09:38:12.616Z,73.42
2023-07-24T09:40:40.533Z,72.98
2023-07-24T09:43:30.195Z,73.15
2023-07-24T09:46:05.931Z,72.60
2023-07-24T09:51:03.060Z,72.99
2023-07-24T09:53:38.275Z,73.20
2023-07-24T09:56:07.333Z,72.89
2023-07-24T09:58:35.810Z,72.92
2023-07-24T10:01:08.110Z,72.75
2023-07-24T10:03:43.609Z,72.71
2023-07-24T10:06:12.363Z,72.74
2023-07-24T10:08:40.816Z,72.63
2023-07-24T10:11:09.656Z,72.11
2023-07-24T10:13:37.725Z,71.10
2023-07-24T10:16:07.762Z,70.80
2023-07-24T10:18:36.153Z,71.44
2023-07-24T10:21:07.244Z,71.43
2023-07-24T10:23:45.249Z,71.75
2023-07-24T10:26:11.944Z,71.23
2023-07-24T10:28:42.520Z,71.05
2023-07-24T10:31:24.147Z,70.67
2023-07-24T10:33:52.269Z,69.98
2023-07-24T10:36:21.322Z,70.08
2023-07-24T10:38:52.824Z,70.46
2023-07-24T10:41:19.259Z,70.36
2023-07-24T10:43:50.006Z,70.31
2023-07-24T10:46:20.039Z,70.00
2023-07-24T10:48:49.332Z,70.20
2023-07-24T10:51:16.300Z,69.08
2023-07-24T10:53:46.085Z,68.73
2023-07-24T10:56:12.954Z,68.56
2023-07-24T10:58:39.469Z,68.40
2023-07-24T11:01:06.627Z,68.07
2023-07-24T11:03:33.714Z,67.77
2023-07-24T11:06:02.133Z,68.54
2023-07-24T11:08:28.618Z,67.17
2023-07-24T11:10:59.208Z,67.66
2023-07-24T11:13:28.611Z,68.34
2023-07-24T11:15:56.047Z,67.27
2023-07-24T11:18:27.830Z,68.30
2023-07-24T11:20:57.536Z,68.65
2023-07-24T11:23:25.255Z,68.03
2023-07-24T11:25:53.748Z,67.43
2023-07-24T11:28:20.784Z,68.98
2023-07-24T11:30:47.382Z,68.13
2023-07-24T11:33:19.238Z,68.21
2023-07-24T11:35:46.462Z,68.72
2023-07-24T11:38:16.540Z,67.50
2023-07-24T11:40:45.269Z,68.32
2023-07-24T11:43:23.596Z,68.19
2023-07-24T11:45:55.010Z,69.70
2023-07-24T11:48:24.244Z,69.38
2023-07-24T11:50:53.403Z,69.54
2023-07-24T11:53:32.231Z,69.82
2023-07-24T11:56:00.480Z,69.54
2023-07-24T11:58:27.903Z,70.37
2023-07-24T12:00:54.885Z,73.80
2023-07-24T12:03:30.856Z,75.25
2023-07-24T12:05:57.628Z,75.88
2023-07-24T12:08:35.405Z,75.01
2023-07-24T12:11:03.390Z,75.42
2023-07-24T12:13:30.272Z,74.73
2023-07-24T12:15:56.914Z,74.69
2023-07-24T12:18:23.394Z,75.28
2023-07-24T12:20:49.917Z,74.91
2023-07-24T12:23:17.216Z,74.94
2023-07-24T12:25:43.803Z,74.18
2023-07-24T12:28:10.309Z,72.64
2023-07-24T12:30:36.754Z,72.92
2023-07-24T12:33:03.342Z,71.87
2023-07-24T12:35:29.869Z,71.68
2023-07-24T12:37:56.289Z,71.13
2023-07-24T12:40:22.753Z,70.93
2023-07-24T12:42:49.236Z,71.96
2023-07-24T12:45:15.829Z,72.06
2023-07-24T12:47:42.401Z,72.88
2023-07-24T12:50:09.442Z,72.41
2023-07-24T12:52:35.954Z,72.24
2023-07-24T12:55:03.161Z,74.46
2023-07-24T12:57:30.376Z,75.14
2023-07-24T12:59:57.003Z,77.87
2023-07-24T13:02:23.652Z,79.45
2023-07-24T13:04:50.207Z,79.44
2023-07-24T13:07:17.086Z,80.84
2023-07-24T13:09:43.629Z,81.81
2023-07-24T13:12:10.227Z,80.14
2023-07-24T13:14:39.155Z,80.65
2023-07-24T13:17:06.979Z,82.36
2023-07-24T13:19:33.537Z,82.42
2023-07-24T13:22:00.171Z,82.42
2023-07-24T13:24:26.710Z,82.19
2023-07-24T13:26:53.337Z,82.35
2023-07-24T13:29:19.901Z,82.66
2023-07-24T13:31:46.528Z,83.15
2023-07-24T13:34:13.147Z,83.49
2023-07-24T13:36:39.574Z,83.69
2023-07-24T13:39:07.393Z,83.57
2023-07-24T13:41:34.195Z,84.40
2023-07-24T13:44:01.032Z,84.09
2023-07-24T13:46:27.514Z,84.54
2023-07-24T13:48:54.022Z,84.76
2023-07-24T13:51:20.498Z,84.70
2023-07-24T13:53:49.377Z,85.07
2023-07-24T13:56:15.865Z,84.55
2023-07-24T13:58:42.292Z,83.57
2023-07-24T14:01:08.748Z,83.46
2023-07-24T14:03:35.445Z,83.84
2023-07-24T14:06:02.223Z,84.09
2023-07-24T14:08:28.706Z,84.59
2023-07-24T14:10:55.201Z,83.54
2023-07-24T14:13:21.700Z,83.91
2023-07-24T14:15:48.241Z,84.96
2023-07-24T14:18:14.776Z,85.89
2023-07-24T14:20:41.702Z,85.17
2023-07-24T14:23:11.447Z,85.01
2023-07-24T14:25:37.948Z,86.00
2023-07-24T14:28:04.609Z,86.30
2023-07-24T14:30:31.054Z,86.54
2023-07-24T14:32:57.699Z,85.07
2023-07-24T14:35:24.448Z,85.40
2023-07-24T14:37:50.961Z,84.14
2023-07-24T14:40:17.555Z,84.98
2023-07-24T14:42:44.196Z,85.05
2023-07-24T14:45:11.120Z,84.98
2023-07-24T14:47:37.632Z,84.65
2023-07-24T14:50:04.375Z,83.77
2023-07-24T14:52:30.824Z,81.93
2023-07-24T14:54:57.260Z,80.84
2023-07-24T14:57:26.093Z,80.19
2023-07-24T14:59:53.567Z,78.40
2023-07-24T15:02:20.208Z,78.09
2023-07-24T15:04:46.903Z,77.04
2023-07-24T15:07:13.395Z,76.90
2023-07-24T15:09:39.866Z,77.68
2023-07-24T15:12:06.561Z,76.76
2023-07-24T15:14:33.160Z,76.53
2023-07-24T15:16:59.632Z,76.05
2023-07-24T15:19:26.104Z,75.00
2023-07-24T15:21:52.675Z,75.55
2023-07-24T15:24:19.493Z,74.86
2023-07-24T15:26:46.686Z,74.98
2023-07-24T15:29:18.923Z,75.21
2023-07-24T15:31:46.461Z,75.55
2023-07-24T15:34:13.195Z,75.79
2023-07-24T15:36:39.775Z,75.87
2023-07-24T15:39:06.428Z,74.60
2023-07-24T15:41:33.392Z,74.78
2023-07-24T15:44:02.803Z,75.38
2023-07-24T15:46:29.839Z,75.68
2023-07-24T15:48:57.639Z,74.53
2023-07-24T15:51:25.399Z,73.88
2023-07-24T15:53:51.909Z,74.36
2023-07-24T15:56:18.416Z,73.98
2023-07-24T15:58:45.005Z,73.88
2023-07-24T16:01:11.831Z,73.01
2023-07-24T16:03:38.629Z,73.19
2023-07-24T16:06:06.102Z,73.68
2023-07-24T16:08:32.797Z,73.87
2023-07-24T16:10:59.500Z,73.10
2023-07-24T16:13:25.922Z,73.46
2023-07-24T16:15:52.396Z,73.63
2023-07-24T16:18:22.942Z,74.30
2023-07-24T16:20:50.873Z,74.73
2023-07-24T16:23:17.385Z,73.76
2023-07-24T16:25:43.795Z,74.83
2023-07-24T16:28:10.246Z,75.37
2023-07-24T16:30:36.946Z,75.25
2023-07-24T16:33:03.415Z,74.27
2023-07-24T16:35:29.893Z,74.58
2023-07-24T16:37:56.370Z,74.69
2023-07-24T16:40:22.837Z,74.28
2023-07-24T16:42:51.769Z,73.23
2023-07-24T16:47:51.921Z,73.41
2023-07-24T16:50:18.456Z,73.79
2023-07-24T16:52:45.166Z,73.97
2023-07-24T16:55:11.863Z,74.20
2023-07-24T16:57:39.136Z,74.91
2023-07-24T17:00:06.718Z,74.88
2023-07-24T17:02:34.373Z,75.92
2023-07-24T17:05:00.915Z,76.94
2023-07-24T17:07:27.412Z,77.45
2023-07-24T17:09:53.896Z,77.16
2023-07-24T17:12:20.387Z,77.09
2023-07-24T17:14:46.917Z,77.80
2023-07-24T17:17:13.979Z,78.24
2023-07-24T17:19:42.649Z,78.27
2023-07-24T17:22:09.758Z,78.35
2023-07-24T17:24:36.436Z,77.73
2023-07-24T17:27:03.190Z,76.50
2023-07-24T17:29:29.728Z,76.63
2023-07-24T17:31:56.163Z,75.98
2023-07-24T17:34:22.709Z,75.51
2023-07-24T17:36:49.129Z,75.24
2023-07-24T17:39:15.705Z,75.39
2023-07-24T17:41:42.193Z,75.08
2023-07-24T17:44:08.635Z,74.35
2023-07-24T17:46:35.119Z,73.30
2023-07-24T17:49:02.068Z,73.84
2023-07-24T17:51:28.845Z,73.35
2023-07-24T17:53:55.488Z,73.91
2023-07-24T17:56:22.051Z,73.60
2023-07-24T17:58:48.523Z,74.25
2023-07-24T18:01:15.017Z,74.16
2023-07-24T18:03:41.649Z,73.99
2023-07-24T18:06:08.166Z,73.71
2023-07-24T18:08:34.597Z,73.97
2023-07-24T18:11:01.779Z,73.72
2023-07-24T18:13:28.225Z,73.04
2023-07-24T18:15:54.728Z,73.23
2023-07-24T18:18:21.174Z,73.19
2023-07-24T18:20:47.929Z,73.02
2023-07-24T18:23:14.518Z,73.10
2023-07-24T18:25:40.968Z,73.05
2023-07-24T18:28:07.684Z,72.54
2023-07-24T18:30:34.158Z,72.81
2023-07-24T18:33:00.918Z,72.76
2023-07-24T18:35:27.409Z,73.21
2023-07-24T18:37:53.977Z,73.02
2023-07-24T18:40:20.646Z,74.01
2023-07-24T18:42:47.433Z,74.35
2023-07-24T18:45:13.819Z,74.91
2023-07-24T18:47:40.280Z,74.62
2023-07-24T18:50:07.043Z,73.67
2023-07-24T18:52:33.607Z,72.95
2023-07-24T18:55:02.973Z,73.49
2023-07-24T18:57:29.433Z,72.64
2023-07-24T18:59:55.911Z,72.82
2023-07-24T19:02:22.593Z,71.63
2023-07-24T19:04:49.155Z,71.54
2023-07-24T19:07:16.398Z,71.12
2023-07-24T19:09:42.864Z,71.29
2023-07-24T19:12:09.293Z,70.24
2023-07-24T19:14:35.747Z,70.06
2023-07-24T19:17:02.266Z,70.16
2023-07-24T19:19:28.718Z,69.23
2023-07-24T19:21:55.190Z,69.35
2023-07-24T19:24:21.655Z,69.86
2023-07-24T19:26:48.158Z,70.10
2023-07-24T19:29:14.661Z,69.93
2023-07-24T19:31:41.132Z,70.65
2023-07-24T19:34:08.125Z,70.69
2023-07-24T19:36:34.569Z,70.46
2023-07-24T19:39:01.305Z,69.91
2023-07-24T19:41:27.776Z,69.31
2023-07-24T19:43:54.265Z,69.17
2023-07-24T19:46:20.796Z,69.58
2023-07-24T19:48:47.377Z,69.49
2023-07-24T19:51:13.814Z,68.07
2023-07-24T19:53:40.227Z,68.23
2023-07-24T19:56:06.671Z,68.83
2023-07-24T19:58:36.451Z,69.23
2023-07-24T20:01:05.003Z,68.35
2023-07-24T20:03:31.764Z,68.48
2023-07-24T20:06:00.668Z,68.25
2023-07-24T20:08:30.225Z,68.77
2023-07-24T20:10:58.812Z,68.93
2023-07-24T20:13:25.614Z,68.71
2023-07-24T20:15:52.242Z,68.27
2023-07-24T20:18:18.646Z,68.78
2023-07-24T20:20:49.690Z,69.46
2023-07-24T20:23:17.396Z,70.20
2023-07-24T20:25:45.904Z,70.78
2023-07-24T20:28:13.238Z,70.57
2023-07-24T20:30:40.116Z,71.14
2023-07-24T20:33:06.683Z,71.54
2023-07-24T20:35:33.856Z,70.50
2023-07-24T20:38:06.320Z,71.51
2023-07-24T20:40:33.971Z,71.67
2023-07-24T20:43:03.309Z,71.50
2023-07-24T20:45:29.745Z,71.97
2023-07-24T20:47:56.229Z,71.45
2023-07-24T20:50:22.721Z,71.30
2023-07-24T20:52:49.189Z,71.39
2023-07-24T20:55:17.337Z,71.89
2023-07-24T20:57:43.798Z,71.94
2023-07-24T21:00:10.758Z,72.09
2023-07-24T21:02:37.310Z,72.14
2023-07-24T21:05:03.960Z,72.28
2023-07-24T21:07:30.557Z,72.35
2023-07-24T21:09:57.303Z,72.34
2023-07-24T21:12:23.721Z,72.29
2023-07-24T21:14:50.317Z,72.52
2023-07-24T21:17:16.816Z,72.23
2023-07-24T21:19:43.282Z,72.25
2023-07-24T21:22:10.047Z,72.25
2023-07-24T21:24:36.510Z,72.40
2023-07-24T21:27:03.173Z,72.60
2023-07-24T21:29:29.582Z,72.32
2023-07-24T21:31:56.984Z,72.38
2023-07-24T21:34:23.464Z,72.65
2023-07-24T21:36:49.949Z,72.79
2023-07-24T21:39:16.464Z,72.76
2023-07-24T21:41:43.112Z,72.87
2023-07-24T21:44:09.590Z,72.66
2023-07-24T21:46:36.122Z,72.29
2023-07-24T21:49:02.534Z,72.66
2023-07-24T21:51:29.251Z,72.74
2023-07-24T21:53:56.011Z,72.53
2023-07-24T21:56:22.463Z,72.68
2023-07-24T21:58:49.350Z,72.68
2023-07-24T22:01:17.689Z,72.58
2023-07-24T22:03:44.182Z,72.83
2023-07-24T22:06:10.920Z,72.78
2023-07-24T22:08:37.545Z,72.81
2023-07-24T22:11:13.675Z,73.12
2023-07-24T22:13:41.627Z,73.16
2023-07-24T22:16:08.306Z,72.95
2023-07-24T22:18:34.918Z,73.14
2023-07-24T22:21:02.309Z,73.00
2023-07-24T22:23:28.992Z,73.09
2023-07-24T22:25:56.509Z,73.08
2023-07-24T22:28:22.972Z,73.49
2023-07-24T22:30:49.950Z,73.47
2023-07-24T22:33:16.517Z,73.64
2023-07-24T22:35:43.013Z,73.40
2023-07-24T22:38:09.484Z,73.45
2023-07-24T22:40:35.973Z,73.37
2023-07-24T22:43:02.417Z,73.37
2023-07-24T22:45:28.826Z,73.16
2023-07-24T22:47:56.396Z,73.11
2023-07-24T22:50:23.179Z,73.05
2023-07-24T22:52:49.745Z,73.00
2023-07-24T22:55:19.345Z,73.09
2023-07-24T22:57:45.789Z,73.30
2023-07-24T23:00:12.565Z,73.45
2023-07-24T23:02:39.031Z,73.66
2023-07-24T23:05:05.949Z,73.70
2023-07-24T23:07:32.656Z,73.64
2023-07-24T23:09:59.087Z,73.70
2023-07-24T23:12:25.481Z,73.80
2023-07-24T23:14:51.993Z,73.67
2023-07-24T23:17:18.423Z,73.81
2023-07-24T23:19:45.206Z,73.66
2023-07-24T23:22:11.714Z,73.78
2023-07-24T23:24:38.398Z,73.77
2023-07-24T23:27:05.055Z,73.80
2023-07-24T23:29:31.563Z,73.88
2023-07-24T23:31:58.021Z,74.01
2023-07-24T23:34:24.525Z,74.08
2023-07-24T23:36:50.979Z,74.05
2023-07-24T23:39:17.395Z,74.03
2023-07-24T23:41:43.864Z,74.15
2023-07-24T23:44:10.468Z,74.06
2023-07-24T23:46:39.761Z,74.26
2023-07-24T23:49:06.253Z,74.26
2023-07-24T23:51:32.959Z,74.17
2023-07-24T23:53:59.608Z,74.27
2023-07-24T23:56:26.038Z,74.10
2023-07-24T23:58:52.505Z,74.00
